Time;durP1;ratioP1;P1;durP2;ratioP2;P2;SDS_P1;SDS_P2;PMS_P1;PMS_P2;Temp;Humidity;BMP_temperature;BMP_pressure;BME280_temperature;BME280_humidity;BME280_pressure;Samples;Min_cycle;Max_cycle;Signal;HPM_P1;HPM_P2
2022/10/05 00:00:13;;;;;;;1.50;1.20;;;;;;;;;;5064204;27;82586;-53
2022/10/05 00:02:41;;;;;;;1.20;1.10;;;;;;;;;;5066492;27;81864;-53
2022/10/05 00:05:14;;;;;;;1.40;0.90;;;;;;;;;;5085666;27;83567;-53
2022/10/05 00:07:43;;;;;;;1.93;1.23;;;;;;;;;;5082941;27;84176;-54
2022/10/05 00:10:12;;;;;;;1.23;1.00;;;;;;;;;;5084969;27;83948;-53
2022/10/05 00:12:41;;;;;;;1.07;1.00;;;;;;;;;;5082403;27;82843;-54
2022/10/05 00:15:11;;;;;;;1.70;1.10;;;;;;;;;;5084311;27;83665;-54
2022/10/05 00:17:39;;;;;;;2.10;1.13;;;;;;;;;;5084197;27;83937;-53
2022/10/05 00:20:14;;;;;;;1.27;0.90;;;;;;;;;;5087728;27;83535;-53
2022/10/05 00:22:42;;;;;;;1.90;1.33;;;;;;;;;;5071518;27;81759;-53
2022/10/05 00:25:12;;;;;;;1.30;1.20;;;;;;;;;;5072052;27;82856;-52
2022/10/05 00:27:42;;;;;;;1.27;0.97;;;;;;;;;;5083188;27;82920;-53
2022/10/05 00:30:14;;;;;;;1.47;1.00;;;;;;;;;;5067965;27;82770;-52
2022/10/05 00:32:42;;;;;;;0.87;0.87;;;;;;;;;;5067445;27;81991;-53
2022/10/05 00:35:11;;;;;;;0.67;0.67;;;;;;;;;;5066583;27;81952;-53
2022/10/05 00:37:39;;;;;;;0.93;0.73;;;;;;;;;;5070528;27;84169;-53
2022/10/05 00:40:10;;;;;;;0.87;0.87;;;;;;;;;;5085649;27;83618;-52
2022/10/05 00:42:40;;;;;;;1.87;1.10;;;;;;;;;;5086270;27;82119;-53
2022/10/05 00:45:11;;;;;;;1.57;0.80;;;;;;;;;;5069059;27;82558;-52
2022/10/05 00:47:42;;;;;;;1.10;1.00;;;;;;;;;;5076048;27;82990;-53
2022/10/05 00:50:30;;;;;;;3.57;1.07;;;;;;;;;;5067346;27;82387;-52
2022/10/05 00:53:00;;;;;;;1.53;0.90;;;;;;;;;;5068374;27;83588;-53
2022/10/05 00:55:31;;;;;;;1.33;1.00;;;;;;;;;;5074748;27;83898;-53
2022/10/05 00:58:03;;;;;;;0.97;0.87;;;;;;;;;;5085915;27;83809;-53
2022/10/05 01:00:33;;;;;;;1.13;0.83;;;;;;;;;;5087578;27;81997;-53
2022/10/05 01:03:02;;;;;;;1.00;0.90;;;;;;;;;;5075017;27;82850;-53
2022/10/05 01:05:35;;;;;;;2.30;0.90;;;;;;;;;;5087852;27;82901;-53
2022/10/05 01:08:05;;;;;;;0.77;0.70;;;;;;;;;;5077018;27;84015;-53
2022/10/05 01:10:34;;;;;;;0.80;0.73;;;;;;;;;;5073213;27;81933;-53
2022/10/05 01:13:04;;;;;;;1.13;0.70;;;;;;;;;;5086163;27;83021;-53
2022/10/05 01:15:34;;;;;;;1.00;0.90;;;;;;;;;;5087065;27;83151;-52
2022/10/05 01:18:04;;;;;;;0.80;0.80;;;;;;;;;;5077397;27;83320;-53
2022/10/05 01:20:35;;;;;;;2.57;0.80;;;;;;;;;;5067551;27;82729;-53
2022/10/05 01:23:08;;;;;;;1.73;0.80;;;;;;;;;;5082528;27;82295;-52
2022/10/05 01:25:38;;;;;;;1.50;1.03;;;;;;;;;;5085550;27;83303;-52
2022/10/05 01:28:09;;;;;;;0.87;0.87;;;;;;;;;;5085806;27;86719;-53
2022/10/05 01:30:38;;;;;;;1.30;0.93;;;;;;;;;;5087074;27;83707;-53
2022/10/05 01:33:09;;;;;;;1.13;0.80;;;;;;;;;;5085996;27;81880;-53
2022/10/05 01:35:40;;;;;;;1.10;0.90;;;;;;;;;;5086380;27;84107;-53
2022/10/05 01:38:15;;;;;;;1.27;0.90;;;;;;;;;;5087375;27;83934;-53
2022/10/05 01:40:45;;;;;;;1.37;1.17;;;;;;;;;;5083359;27;81921;-52
2022/10/05 01:43:17;;;;;;;1.20;0.83;;;;;;;;;;5074761;27;82814;-52
2022/10/05 01:45:48;;;;;;;1.80;1.17;;;;;;;;;;5085174;27;83795;-53
2022/10/05 01:48:17;;;;;;;0.60;0.60;;;;;;;;;;5077275;27;82082;-52
2022/10/05 01:50:48;;;;;;;2.90;1.27;;;;;;;;;;5065913;27;85792;-51
2022/10/05 01:53:18;;;;;;;1.13;0.67;;;;;;;;;;5065052;27;82816;-52
2022/10/05 01:55:49;;;;;;;1.13;0.90;;;;;;;;;;5070484;27;82480;-52
2022/10/05 01:58:19;;;;;;;0.73;0.73;;;;;;;;;;5086143;27;84187;-53
2022/10/05 02:00:50;;;;;;;1.37;1.27;;;;;;;;;;5086327;27;82514;-52
2022/10/05 02:03:19;;;;;;;1.90;1.57;;;;;;;;;;5086607;27;83359;-53
2022/10/05 02:05:48;;;;;;;0.80;0.80;;;;;;;;;;5081634;27;82433;-53
2022/10/05 02:08:18;;;;;;;1.93;0.80;;;;;;;;;;5065594;27;82867;-53
2022/10/05 02:10:47;;;;;;;0.83;0.50;;;;;;;;;;5067167;27;82620;-53
2022/10/05 02:13:16;;;;;;;1.03;0.80;;;;;;;;;;5086032;27;82026;-53
2022/10/05 02:15:46;;;;;;;1.07;0.90;;;;;;;;;;5080098;27;84033;-53
2022/10/05 02:18:16;;;;;;;1.93;0.70;;;;;;;;;;5065109;27;84166;-52
2022/10/05 02:20:45;;;;;;;1.07;0.90;;;;;;;;;;5063572;27;83808;-52
2022/10/05 02:23:14;;;;;;;0.60;0.60;;;;;;;;;;5064408;27;82486;-53
2022/10/05 02:25:44;;;;;;;0.60;0.60;;;;;;;;;;5069278;27;83706;-53
2022/10/05 02:28:13;;;;;;;1.60;0.97;;;;;;;;;;5086343;27;84302;-53
2022/10/05 02:30:43;;;;;;;1.07;0.80;;;;;;;;;;5086439;27;84163;-53
2022/10/05 02:33:14;;;;;;;1.37;0.90;;;;;;;;;;5085935;27;81882;-53
2022/10/05 02:35:42;;;;;;;1.50;0.90;;;;;;;;;;5082765;27;83955;-53
2022/10/05 02:38:12;;;;;;;0.83;0.83;;;;;;;;;;5064850;27;82717;-52
2022/10/05 02:40:43;;;;;;;1.70;1.13;;;;;;;;;;5065468;27;81996;-52
2022/10/05 02:43:15;;;;;;;1.17;0.80;;;;;;;;;;5068243;27;82996;-52
2022/10/05 02:45:45;;;;;;;1.20;1.10;;;;;;;;;;5074274;27;83753;-52
2022/10/05 02:48:16;;;;;;;2.10;0.93;;;;;;;;;;5067116;27;83103;-52
2022/10/05 02:50:46;;;;;;;1.33;1.23;;;;;;;;;;5064936;27;81976;-53
2022/10/05 02:53:16;;;;;;;0.93;0.90;;;;;;;;;;5065558;27;81947;-52
2022/10/05 02:55:47;;;;;;;1.07;0.80;;;;;;;;;;5066332;27;83465;-52
2022/10/05 02:58:15;;;;;;;1.93;0.90;;;;;;;;;;5081530;27;84005;-53
2022/10/05 03:00:45;;;;;;;1.90;1.23;;;;;;;;;;5085945;27;83698;-53
2022/10/05 03:03:16;;;;;;;2.33;1.10;;;;;;;;;;5068548;27;82018;-53
2022/10/05 03:05:44;;;;;;;1.30;1.20;;;;;;;;;;5075876;27;82454;-53
2022/10/05 03:08:14;;;;;;;1.30;1.20;;;;;;;;;;5068814;27;85083;-53
2022/10/05 03:10:44;;;;;;;1.60;1.10;;;;;;;;;;5072856;27;82498;-53
2022/10/05 03:13:13;;;;;;;2.27;1.20;;;;;;;;;;5070831;27;82820;-53
2022/10/05 03:15:54;;;;;;;2.73;1.30;;;;;;;;;;5075807;27;82612;-52
2022/10/05 03:18:27;;;;;;;2.03;1.40;;;;;;;;;;5067843;27;84017;-53
2022/10/05 03:20:59;;;;;;;1.73;1.60;;;;;;;;;;5064902;27;83992;-52
2022/10/05 03:23:29;;;;;;;3.13;1.87;;;;;;;;;;5065089;27;81909;-54
2022/10/05 03:26:07;;;;;;;2.40;1.20;;;;;;;;;;5077579;27;82600;-53
2022/10/05 03:28:37;;;;;;;3.63;1.23;;;;;;;;;;5066191;27;83780;-52
2022/10/05 03:31:06;;;;;;;2.00;1.30;;;;;;;;;;5064861;27;82416;-52
2022/10/05 03:33:40;;;;;;;4.87;1.67;;;;;;;;;;5064412;27;82670;-53
2022/10/05 03:36:11;;;;;;;2.73;1.60;;;;;;;;;;5064566;27;83998;-53
2022/10/05 03:38:41;;;;;;;3.17;1.60;;;;;;;;;;5083623;27;83831;-52
2022/10/05 03:41:11;;;;;;;1.10;1.00;;;;;;;;;;5072839;27;83635;-52
2022/10/05 03:43:54;;;;;;;2.67;1.63;;;;;;;;;;5064746;27;81778;-53
2022/10/05 03:46:25;;;;;;;1.67;1.10;;;;;;;;;;5077512;27;84117;-53
2022/10/05 03:48:56;;;;;;;1.57;1.20;;;;;;;;;;5083547;27;82819;-53
2022/10/05 03:51:25;;;;;;;1.87;1.13;;;;;;;;;;5085005;27;82574;-53
2022/10/05 03:53:55;;;;;;;3.73;1.33;;;;;;;;;;5085001;27;82530;-53
2022/10/05 03:56:25;;;;;;;0.80;0.63;;;;;;;;;;5064650;27;83706;-52
2022/10/05 03:58:54;;;;;;;1.60;0.83;;;;;;;;;;5083534;27;83855;-53
2022/10/05 04:01:23;;;;;;;1.27;0.97;;;;;;;;;;5084940;27;84967;-53
2022/10/05 04:03:51;;;;;;;1.20;1.10;;;;;;;;;;5084771;27;81858;-52
2022/10/05 04:06:21;;;;;;;0.70;0.70;;;;;;;;;;5066737;27;81818;-53
2022/10/05 04:08:52;;;;;;;2.97;1.30;;;;;;;;;;5063801;27;83950;-52
2022/10/05 04:11:21;;;;;;;0.90;0.80;;;;;;;;;;5063546;27;82586;-53
2022/10/05 04:13:49;;;;;;;1.40;0.90;;;;;;;;;;5064579;27;81963;-53
2022/10/05 04:16:18;;;;;;;1.50;1.40;;;;;;;;;;5064583;27;82879;-53
2022/10/05 04:18:48;;;;;;;4.03;0.80;;;;;;;;;;5063920;27;83349;-52
2022/10/05 04:21:18;;;;;;;0.97;0.60;;;;;;;;;;5063974;27;83913;-52
2022/10/05 04:23:54;;;;;;;0.50;0.50;;;;;;;;;;5063677;27;82784;-53
2022/10/05 04:26:25;;;;;;;0.97;0.87;;;;;;;;;;5063512;27;83475;-53
2022/10/05 04:28:54;;;;;;;3.27;1.30;;;;;;;;;;5067974;27;83851;-53
2022/10/05 04:31:26;;;;;;;0.57;0.57;;;;;;;;;;5063313;27;83647;-52
2022/10/05 04:33:57;;;;;;;0.63;0.60;;;;;;;;;;5063788;27;82008;-53
2022/10/05 04:36:26;;;;;;;0.60;0.60;;;;;;;;;;5079255;27;83858;-52
2022/10/05 04:39:00;;;;;;;1.13;0.83;;;;;;;;;;5064289;27;82956;-52
2022/10/05 04:41:43;;;;;;;1.07;0.73;;;;;;;;;;5064122;27;82684;-52
2022/10/05 04:44:14;;;;;;;1.17;1.07;;;;;;;;;;5064154;27;82005;-53
2022/10/05 04:46:47;;;;;;;0.40;0.40;;;;;;;;;;5079688;27;81978;-53
2022/10/05 04:49:25;;;;;;;0.50;0.50;;;;;;;;;;5063183;27;84992;-52
2022/10/05 04:51:55;;;;;;;1.93;1.03;;;;;;;;;;5064739;27;83951;-52
2022/10/05 04:54:25;;;;;;;0.60;0.60;;;;;;;;;;5063821;27;81868;-51
2022/10/05 04:56:54;;;;;;;0.40;0.40;;;;;;;;;;5062516;27;81965;-53
2022/10/05 04:59:34;;;;;;;0.57;0.40;;;;;;;;;;5076152;27;82829;-53
2022/10/05 05:02:05;;;;;;;0.60;0.60;;;;;;;;;;5063652;27;82807;-53
2022/10/05 05:04:41;;;;;;;0.80;0.50;;;;;;;;;;5069099;27;82029;-53
2022/10/05 05:07:12;;;;;;;0.37;0.37;;;;;;;;;;5081669;27;82560;-53
2022/10/05 05:10:02;;;;;;;0.70;0.60;;;;;;;;;;5067281;27;83095;-52
2022/10/05 05:12:33;;;;;;;0.40;0.40;;;;;;;;;;5053777;27;83629;-52
2022/10/05 05:15:12;;;;;;;0.50;0.50;;;;;;;;;;5084947;27;82809;-51
2022/10/05 05:17:49;;;;;;;0.60;0.60;;;;;;;;;;5078007;27;83553;-52
2022/10/05 05:20:20;;;;;;;0.40;0.40;;;;;;;;;;5066431;27;83867;-52
2022/10/05 05:22:49;;;;;;;0.30;0.30;;;;;;;;;;5066536;27;82605;-52
2022/10/05 05:25:27;;;;;;;0.50;0.50;;;;;;;;;;5067335;27;82029;-53
2022/10/05 05:27:58;;;;;;;0.50;0.50;;;;;;;;;;5075130;27;82375;-53
2022/10/05 05:30:27;;;;;;;0.70;0.70;;;;;;;;;;5075186;27;83053;-52
2022/10/05 05:33:01;;;;;;;1.03;0.97;;;;;;;;;;5067054;27;83580;-53
2022/10/05 05:35:36;;;;;;;0.40;0.40;;;;;;;;;;5066998;27;81710;-53
2022/10/05 05:38:07;;;;;;;0.93;0.57;;;;;;;;;;5066896;27;84006;-52
2022/10/05 05:40:35;;;;;;;0.50;0.50;;;;;;;;;;5067401;27;83780;-50
2022/10/05 05:43:07;;;;;;;0.70;0.70;;;;;;;;;;5066156;27;84699;-50
2022/10/05 05:45:37;;;;;;;0.53;0.47;;;;;;;;;;5067114;27;82010;-50
2022/10/05 05:48:06;;;;;;;0.50;0.40;;;;;;;;;;5069173;27;82562;-49
2022/10/05 05:50:35;;;;;;;0.60;0.60;;;;;;;;;;5080893;27;82909;-49
2022/10/05 05:53:04;;;;;;;0.50;0.43;;;;;;;;;;5076146;27;82541;-49
2022/10/05 05:55:33;;;;;;;0.37;0.37;;;;;;;;;;5076999;27;81796;-48
2022/10/05 05:58:03;;;;;;;0.50;0.50;;;;;;;;;;5076307;27;83879;-49
2022/10/05 06:00:35;;;;;;;1.07;0.50;;;;;;;;;;5067935;27;83931;-49
2022/10/05 06:03:04;;;;;;;0.50;0.30;;;;;;;;;;5066143;27;83121;-49
2022/10/05 06:05:34;;;;;;;1.43;0.50;;;;;;;;;;5065471;27;82938;-49
2022/10/05 06:08:03;;;;;;;0.50;0.50;;;;;;;;;;5080656;27;83855;-49
2022/10/05 06:10:33;;;;;;;0.97;0.40;;;;;;;;;;5086100;27;82652;-49
2022/10/05 06:13:04;;;;;;;0.50;0.50;;;;;;;;;;5084236;27;82039;-49
2022/10/05 06:15:35;;;;;;;0.43;0.43;;;;;;;;;;5086234;27;81974;-49
2022/10/05 06:18:03;;;;;;;0.73;0.40;;;;;;;;;;5071839;27;83567;-50
2022/10/05 06:20:34;;;;;;;1.80;0.50;;;;;;;;;;5069045;27;82031;-49
2022/10/05 06:23:02;;;;;;;0.60;0.60;;;;;;;;;;5071171;27;83787;-50
2022/10/05 06:25:32;;;;;;;0.53;0.40;;;;;;;;;;5073960;27;82209;-49
2022/10/05 06:28:02;;;;;;;0.30;0.30;;;;;;;;;;5075585;27;81971;-49
2022/10/05 06:30:32;;;;;;;0.60;0.60;;;;;;;;;;5079376;27;87670;-52
2022/10/05 06:33:06;;;;;;;0.70;0.50;;;;;;;;;;5081097;27;84379;-52
2022/10/05 06:35:38;;;;;;;0.40;0.40;;;;;;;;;;5085507;27;81954;-51
2022/10/05 06:38:11;;;;;;;0.77;0.57;;;;;;;;;;5078672;27;83452;-52
2022/10/05 06:40:49;;;;;;;1.20;0.50;;;;;;;;;;5074660;27;83888;-51
2022/10/05 06:43:30;;;;;;;0.50;0.50;;;;;;;;;;5064826;27;83685;-51
2022/10/05 06:46:01;;;;;;;0.70;0.57;;;;;;;;;;5075082;27;81944;-52
2022/10/05 06:48:35;;;;;;;0.57;0.57;;;;;;;;;;5079384;27;82884;-51
2022/10/05 06:51:05;;;;;;;1.30;0.60;;;;;;;;;;5070785;27;82700;-51
2022/10/05 06:53:34;;;;;;;0.40;0.40;;;;;;;;;;5063810;27;84071;-51
2022/10/05 06:56:04;;;;;;;0.63;0.60;;;;;;;;;;5073761;27;82890;-51
2022/10/05 06:58:37;;;;;;;0.47;0.47;;;;;;;;;;5076758;27;83767;-52
2022/10/05 07:01:09;;;;;;;1.40;0.53;;;;;;;;;;5072022;27;84045;-52
2022/10/05 07:03:41;;;;;;;0.60;0.60;;;;;;;;;;5081924;27;83462;-51
2022/10/05 07:06:15;;;;;;;5.30;0.50;;;;;;;;;;5076963;27;81986;-51
2022/10/05 07:08:47;;;;;;;2.30;0.67;;;;;;;;;;5064958;27;82585;-51
2022/10/05 07:11:20;;;;;;;0.70;0.40;;;;;;;;;;5080940;27;84042;-51
2022/10/05 07:13:51;;;;;;;0.40;0.40;;;;;;;;;;5064860;27;82666;-52
2022/10/05 07:16:22;;;;;;;0.30;0.30;;;;;;;;;;5074506;27;81868;-51
2022/10/05 07:18:54;;;;;;;6.13;1.37;;;;;;;;;;5064544;27;82440;-51
2022/10/05 07:21:24;;;;;;;0.30;0.30;;;;;;;;;;5081402;27;84939;-53
2022/10/05 07:23:54;;;;;;;1.37;0.70;;;;;;;;;;5085146;27;83725;-51
2022/10/05 07:26:23;;;;;;;0.33;0.33;;;;;;;;;;5069450;27;81892;-51
2022/10/05 07:28:54;;;;;;;0.30;0.30;;;;;;;;;;5066955;27;83535;-51
2022/10/05 07:31:23;;;;;;;0.40;0.40;;;;;;;;;;5076020;27;81959;-51
2022/10/05 07:33:53;;;;;;;0.50;0.50;;;;;;;;;;5070055;27;84139;-51
2022/10/05 07:39:11;;;;;;;0.40;0.40;;;;;;;;;;5064925;27;83655;-51
2022/10/05 07:41:40;;;;;;;0.40;0.40;;;;;;;;;;5063905;27;82809;-51
2022/10/05 07:44:11;;;;;;;0.30;0.30;;;;;;;;;;5063802;27;82646;-51
2022/10/05 07:46:44;;;;;;;3.93;0.67;;;;;;;;;;5063522;27;82918;-51
2022/10/05 07:49:16;;;;;;;0.30;0.30;;;;;;;;;;5064741;27;82711;-51
2022/10/05 07:51:45;;;;;;;1.10;0.57;;;;;;;;;;5064712;27;83755;-51
2022/10/05 07:54:15;;;;;;;1.07;0.70;;;;;;;;;;5064009;27;82858;-51
2022/10/05 07:56:44;;;;;;;0.40;0.40;;;;;;;;;;5072645;27;81861;-51
2022/10/05 07:59:14;;;;;;;0.43;0.43;;;;;;;;;;5064322;27;82861;-50
2022/10/05 08:01:44;;;;;;;0.50;0.40;;;;;;;;;;5064031;27;83813;-50
2022/10/05 08:04:13;;;;;;;3.20;0.70;;;;;;;;;;5083075;27;82953;-55
2022/10/05 08:06:46;;;;;;;0.50;0.50;;;;;;;;;;5084544;27;81813;-51
2022/10/05 08:09:19;;;;;;;0.53;0.53;;;;;;;;;;5067540;27;83883;-51
2022/10/05 08:11:50;;;;;;;0.40;0.40;;;;;;;;;;5070262;27;82906;-50
2022/10/05 08:14:20;;;;;;;3.00;0.47;;;;;;;;;;5083661;27;84835;-51
2022/10/05 08:16:48;;;;;;;0.50;0.50;;;;;;;;;;5083946;27;82000;-51
2022/10/05 08:19:17;;;;;;;0.27;0.27;;;;;;;;;;5064849;27;83599;-51
2022/10/05 08:21:48;;;;;;;0.40;0.40;;;;;;;;;;5063968;27;83023;-51
2022/10/05 08:24:20;;;;;;;0.50;0.50;;;;;;;;;;5063730;27;83805;-51
2022/10/05 08:26:50;;;;;;;0.60;0.60;;;;;;;;;;5065480;27;82007;-51
2022/10/05 08:29:20;;;;;;;0.50;0.50;;;;;;;;;;5065411;27;82710;-51
2022/10/05 08:31:49;;;;;;;0.27;0.27;;;;;;;;;;5063573;27;83733;-51
2022/10/05 08:34:20;;;;;;;0.60;0.60;;;;;;;;;;5068451;27;82836;-51
2022/10/05 08:36:55;;;;;;;0.40;0.40;;;;;;;;;;5073837;27;82977;-51
2022/10/05 08:39:24;;;;;;;0.37;0.37;;;;;;;;;;5083307;27;84048;-50
2022/10/05 08:42:26;;;;;;;1.83;0.70;;;;;;;;;;5079476;27;83976;-50
2022/10/05 08:45:13;;;;;;;0.40;0.40;;;;;;;;;;5002780;28;82464;-51
2022/10/05 08:47:47;;;;;;;0.60;0.60;;;;;;;;;;4988297;28;81982;-51
2022/10/05 08:50:20;;;;;;;0.40;0.40;;;;;;;;;;5037597;27;82426;-52
2022/10/05 08:53:07;;;;;;;0.47;0.47;;;;;;;;;;5067333;27;82978;-52
2022/10/05 08:55:45;;;;;;;0.37;0.30;;;;;;;;;;5076950;27;83763;-52
2022/10/05 08:58:22;;;;;;;0.57;0.57;;;;;;;;;;5073262;27;82802;-51
2022/10/05 09:00:52;;;;;;;0.50;0.40;;;;;;;;;;5083711;27;82574;-51
2022/10/05 09:03:34;;;;;;;0.30;0.30;;;;;;;;;;5078759;27;84897;-52
2022/10/05 09:06:23;;;;;;;0.47;0.30;;;;;;;;;;5087191;27;84646;-51
2022/10/05 09:09:02;;;;;;;0.60;0.40;;;;;;;;;;5074589;27;83138;-52
2022/10/05 09:11:35;;;;;;;4.27;3.70;;;;;;;;;;5069381;27;82782;-53
2022/10/05 09:14:06;;;;;;;15.37;8.70;;;;;;;;;;5066344;27;84115;-52
2022/10/05 09:17:05;;;;;;;17.63;9.50;;;;;;;;;;5070774;27;82888;-51
2022/10/05 09:19:48;;;;;;;19.37;10.67;;;;;;;;;;5080214;27;82057;-51
2022/10/05 09:22:16;;;;;;;7.40;4.83;;;;;;;;;;5085198;27;82505;-50
2022/10/05 09:24:51;;;;;;;14.83;6.57;;;;;;;;;;5076295;27;82665;-49
2022/10/05 09:27:23;;;;;;;9.80;5.43;;;;;;;;;;5081673;27;82311;-50
2022/10/05 09:30:11;;;;;;;9.90;4.60;;;;;;;;;;5086840;27;82918;-50
2022/10/05 09:33:00;;;;;;;16.87;5.50;;;;;;;;;;5076674;27;82931;-49
2022/10/05 09:35:33;;;;;;;13.97;5.57;;;;;;;;;;5045999;27;83920;-49
2022/10/05 09:38:16;;;;;;;14.70;4.97;;;;;;;;;;5070793;27;82880;-49
2022/10/05 09:40:53;;;;;;;12.87;4.40;;;;;;;;;;5085223;27;81959;-48
2022/10/05 09:43:40;;;;;;;7.03;3.70;;;;;;;;;;5075311;27;82689;-50
2022/10/05 09:46:14;;;;;;;5.03;2.20;;;;;;;;;;5070951;27;84080;-50
2022/10/05 09:49:02;;;;;;;3.27;2.00;;;;;;;;;;5072430;27;82732;-50
2022/10/05 09:51:41;;;;;;;3.37;1.43;;;;;;;;;;5065202;27;82060;-50
2022/10/05 09:54:24;;;;;;;1.77;1.40;;;;;;;;;;5066292;27;83749;-51
2022/10/05 09:57:02;;;;;;;5.13;1.17;;;;;;;;;;5075408;27;85213;-50
2022/10/05 09:59:42;;;;;;;2.37;0.63;;;;;;;;;;5076790;27;84923;-50
2022/10/05 10:02:29;;;;;;;2.20;1.17;;;;;;;;;;5086806;27;82143;-49
2022/10/05 10:05:05;;;;;;;4.30;1.20;;;;;;;;;;5073983;27;83881;-49
2022/10/05 10:07:49;;;;;;;3.20;0.80;;;;;;;;;;5086611;27;83828;-50
2022/10/05 10:10:32;;;;;;;0.50;0.50;;;;;;;;;;5086393;27;82793;-51
2022/10/05 10:13:06;;;;;;;8.53;1.20;;;;;;;;;;5084123;27;81880;-50
2022/10/05 10:15:43;;;;;;;1.13;0.87;;;;;;;;;;5086595;27;82884;-50
2022/10/05 10:18:18;;;;;;;1.20;0.80;;;;;;;;;;5085866;27;83177;-50
2022/10/05 10:20:52;;;;;;;0.63;0.60;;;;;;;;;;5086125;27;82793;-50
2022/10/05 10:23:27;;;;;;;0.40;0.40;;;;;;;;;;5085864;27;82641;-51
2022/10/05 10:26:13;;;;;;;0.40;0.40;;;;;;;;;;5086083;27;82859;-50
2022/10/05 10:29:02;;;;;;;0.90;0.50;;;;;;;;;;5086468;27;83986;-50
2022/10/05 10:31:48;;;;;;;0.87;0.60;;;;;;;;;;5086729;27;82631;-50
2022/10/05 10:34:24;;;;;;;0.40;0.40;;;;;;;;;;5086259;27;82481;-50
2022/10/05 10:36:59;;;;;;;0.30;0.30;;;;;;;;;;5085987;27;81905;-50
2022/10/05 10:39:29;;;;;;;0.60;0.57;;;;;;;;;;5086370;27;81864;-50
2022/10/05 10:42:09;;;;;;;0.67;0.50;;;;;;;;;;5086988;27;83711;-50
2022/10/05 10:44:58;;;;;;;0.60;0.60;;;;;;;;;;5086320;27;81831;-50
2022/10/05 10:47:31;;;;;;;1.40;0.47;;;;;;;;;;5051668;27;82790;-49
2022/10/05 10:50:22;;;;;;;0.60;0.60;;;;;;;;;;5085493;27;84797;-50
2022/10/05 10:52:56;;;;;;;0.73;0.60;;;;;;;;;;5053186;27;84926;-50
2022/10/05 10:55:31;;;;;;;1.03;0.93;;;;;;;;;;5086143;27;81756;-50
2022/10/05 10:58:07;;;;;;;0.30;0.30;;;;;;;;;;5086061;27;82460;-51
2022/10/05 11:00:44;;;;;;;1.13;0.67;;;;;;;;;;5084949;27;83192;-50
2022/10/05 11:03:31;;;;;;;0.63;0.63;;;;;;;;;;5085881;27;83864;-50
2022/10/05 11:06:18;;;;;;;0.60;0.60;;;;;;;;;;5085564;27;81938;-51
2022/10/05 11:09:07;;;;;;;0.60;0.60;;;;;;;;;;5086546;27;82184;-50
2022/10/05 11:11:58;;;;;;;1.53;0.50;;;;;;;;;;5085743;27;81866;-51
2022/10/05 11:14:40;;;;;;;0.60;0.60;;;;;;;;;;5085227;27;83547;-50
2022/10/05 11:17:14;;;;;;;0.83;0.83;;;;;;;;;;5084430;27;83185;-51
2022/10/05 11:19:46;;;;;;;0.40;0.40;;;;;;;;;;5084987;27;82535;-51
2022/10/05 11:22:39;;;;;;;3.20;0.47;;;;;;;;;;5085269;27;83069;-51
2022/10/05 11:25:17;;;;;;;1.67;0.83;;;;;;;;;;5085583;27;82595;-51
2022/10/05 11:27:51;;;;;;;0.70;0.60;;;;;;;;;;5085595;27;81986;-51
2022/10/05 11:30:30;;;;;;;0.60;0.60;;;;;;;;;;5085483;27;82025;-51
2022/10/05 11:33:23;;;;;;;0.50;0.50;;;;;;;;;;5085428;27;83889;-50
2022/10/05 11:35:55;;;;;;;1.80;0.77;;;;;;;;;;5086140;27;83560;-50
2022/10/05 11:38:33;;;;;;;0.30;0.30;;;;;;;;;;5085402;27;81893;-50
2022/10/05 11:41:12;;;;;;;0.93;0.77;;;;;;;;;;5085276;27;82755;-50
2022/10/05 11:43:46;;;;;;;0.60;0.50;;;;;;;;;;5084585;27;84984;-50
2022/10/05 11:46:15;;;;;;;0.63;0.57;;;;;;;;;;5085202;27;84918;-50
2022/10/05 11:48:50;;;;;;;2.30;0.70;;;;;;;;;;5085361;27;81889;-50
2022/10/05 11:51:21;;;;;;;0.73;0.70;;;;;;;;;;5085060;27;83726;-51
2022/10/05 11:53:57;;;;;;;0.40;0.40;;;;;;;;;;5085418;27;84031;-49
2022/10/05 11:56:29;;;;;;;0.70;0.50;;;;;;;;;;5084648;27;83585;-50
2022/10/05 11:59:02;;;;;;;0.50;0.50;;;;;;;;;;5084675;27;81997;-51
2022/10/05 12:01:33;;;;;;;1.30;0.60;;;;;;;;;;5085328;27;84497;-51
2022/10/05 12:04:05;;;;;;;0.60;0.60;;;;;;;;;;5085443;27;83006;-50
2022/10/05 12:06:40;;;;;;;1.90;0.40;;;;;;;;;;5085035;27;83781;-51
2022/10/05 12:09:14;;;;;;;0.77;0.77;;;;;;;;;;5084987;27;82718;-51
2022/10/05 12:11:57;;;;;;;0.70;0.70;;;;;;;;;;5084785;27;83838;-50
2022/10/05 12:14:27;;;;;;;0.67;0.50;;;;;;;;;;5089003;27;84195;-51
2022/10/05 12:16:57;;;;;;;0.73;0.70;;;;;;;;;;5088899;27;81988;-51
2022/10/05 12:19:28;;;;;;;1.10;0.70;;;;;;;;;;5088618;27;81816;-51
2022/10/05 12:21:58;;;;;;;0.70;0.70;;;;;;;;;;5088261;27;83650;-51
2022/10/05 12:24:27;;;;;;;0.83;0.80;;;;;;;;;;5088303;27;82893;-51
2022/10/05 12:26:58;;;;;;;0.63;0.47;;;;;;;;;;5088358;27;83836;-51
2022/10/05 12:29:27;;;;;;;1.07;0.80;;;;;;;;;;5088274;27;81739;-51
2022/10/05 12:31:58;;;;;;;0.57;0.40;;;;;;;;;;5088327;27;82651;-50
2022/10/05 12:34:29;;;;;;;0.87;0.80;;;;;;;;;;5087946;27;83849;-50
2022/10/05 12:36:58;;;;;;;0.70;0.70;;;;;;;;;;5088161;27;83403;-51
2022/10/05 12:39:34;;;;;;;2.83;0.70;;;;;;;;;;5088107;27;82728;-50
2022/10/05 12:42:07;;;;;;;0.87;0.70;;;;;;;;;;5088136;27;83930;-50
2022/10/05 12:44:41;;;;;;;0.67;0.67;;;;;;;;;;5088266;27;82660;-50
2022/10/05 12:47:11;;;;;;;0.57;0.53;;;;;;;;;;5088355;27;83550;-50
2022/10/05 12:49:52;;;;;;;0.50;0.50;;;;;;;;;;5087784;27;81890;-51
2022/10/05 12:52:27;;;;;;;0.40;0.40;;;;;;;;;;5088135;27;81590;-52
2022/10/05 12:54:58;;;;;;;3.33;0.90;;;;;;;;;;5087994;27;82992;-51
2022/10/05 12:57:27;;;;;;;0.40;0.40;;;;;;;;;;5087905;27;82792;-51
2022/10/05 12:59:58;;;;;;;3.20;0.53;;;;;;;;;;5087173;27;82917;-51
2022/10/05 13:02:30;;;;;;;3.50;0.90;;;;;;;;;;5087558;27;82928;-50
2022/10/05 13:05:00;;;;;;;0.40;0.40;;;;;;;;;;5087989;27;84218;-51
2022/10/05 13:07:32;;;;;;;0.73;0.73;;;;;;;;;;5087588;27;82821;-51
2022/10/05 13:10:02;;;;;;;2.20;0.80;;;;;;;;;;5087560;27;81886;-50
2022/10/05 13:12:35;;;;;;;0.70;0.70;;;;;;;;;;5087706;27;84014;-49
2022/10/05 13:15:05;;;;;;;0.40;0.40;;;;;;;;;;5087751;27;82768;-50
2022/10/05 13:17:34;;;;;;;0.83;0.70;;;;;;;;;;5088495;27;81574;-51
2022/10/05 13:20:04;;;;;;;0.80;0.60;;;;;;;;;;5087014;27;81877;-50
2022/10/05 13:29:33;;;;;;;0.63;0.63;;;;;;;;;;4961191;28;84010;-50
2022/10/05 13:32:03;;;;;;;0.97;0.70;;;;;;;;;;4924482;28;82881;-50
2022/10/05 13:34:33;;;;;;;1.23;0.53;;;;;;;;;;4925825;28;84076;-51
2022/10/05 13:37:06;;;;;;;1.30;0.80;;;;;;;;;;4925573;28;82923;-50
2022/10/05 13:39:44;;;;;;;1.27;0.70;;;;;;;;;;4925689;28;82463;-51
2022/10/05 13:42:13;;;;;;;1.03;0.63;;;;;;;;;;4925619;28;82015;-51
2022/10/05 13:44:43;;;;;;;0.60;0.57;;;;;;;;;;4926148;28;82370;-51
2022/10/05 13:47:15;;;;;;;0.60;0.60;;;;;;;;;;4925220;28;83064;-50
2022/10/05 13:49:45;;;;;;;0.50;0.50;;;;;;;;;;4925413;28;82858;-50
2022/10/05 13:52:25;;;;;;;3.10;0.80;;;;;;;;;;4924981;28;82892;-51
2022/10/05 13:54:56;;;;;;;0.60;0.60;;;;;;;;;;4925545;28;81951;-50
2022/10/05 13:57:28;;;;;;;0.60;0.60;;;;;;;;;;4929313;28;82930;-51
2022/10/05 13:59:59;;;;;;;0.70;0.50;;;;;;;;;;4935844;28;83001;-51
2022/10/05 14:02:41;;;;;;;1.13;0.70;;;;;;;;;;4936139;28;82121;-50
2022/10/05 14:05:15;;;;;;;0.83;0.60;;;;;;;;;;4966144;28;82687;-50
2022/10/05 14:07:48;;;;;;;0.83;0.70;;;;;;;;;;4965193;28;82943;-52
2022/10/05 14:10:30;;;;;;;0.47;0.47;;;;;;;;;;4965881;28;83892;-51
2022/10/05 14:12:58;;;;;;;0.93;0.87;;;;;;;;;;4970653;28;81895;-51
2022/10/05 14:15:29;;;;;;;3.23;0.60;;;;;;;;;;4964521;28;82889;-50
2022/10/05 14:17:58;;;;;;;1.13;0.50;;;;;;;;;;4965526;28;83871;-51
2022/10/05 14:20:27;;;;;;;0.53;0.43;;;;;;;;;;4979400;28;83790;-51
2022/10/05 14:22:57;;;;;;;0.77;0.70;;;;;;;;;;4982391;28;81979;-51
2022/10/05 14:25:25;;;;;;;0.40;0.40;;;;;;;;;;4965803;28;83817;-51
2022/10/05 14:27:56;;;;;;;2.13;0.40;;;;;;;;;;4965038;28;84009;-50
2022/10/05 14:30:25;;;;;;;0.93;0.67;;;;;;;;;;4964437;28;83985;-49
2022/10/05 14:32:55;;;;;;;0.73;0.60;;;;;;;;;;4965273;28;81912;-51
2022/10/05 14:35:25;;;;;;;2.57;0.70;;;;;;;;;;4978993;28;82823;-49
2022/10/05 14:37:59;;;;;;;0.43;0.40;;;;;;;;;;4977705;28;83865;-50
2022/10/05 14:40:28;;;;;;;0.73;0.60;;;;;;;;;;4979195;28;82972;-50
2022/10/05 14:42:57;;;;;;;2.47;0.70;;;;;;;;;;4984579;28;82917;-50
2022/10/05 14:45:28;;;;;;;3.87;0.60;;;;;;;;;;4984884;28;82377;-51
2022/10/05 14:48:04;;;;;;;1.10;1.00;;;;;;;;;;4965584;28;83092;-50
2022/10/05 14:50:34;;;;;;;0.87;0.67;;;;;;;;;;4946015;28;82678;-51
2022/10/05 14:53:07;;;;;;;0.60;0.60;;;;;;;;;;4945978;28;82044;-50
2022/10/05 14:55:45;;;;;;;0.50;0.50;;;;;;;;;;4963377;28;82089;-50
2022/10/05 14:58:24;;;;;;;1.17;0.83;;;;;;;;;;4964915;28;82701;-50
2022/10/05 15:00:54;;;;;;;0.40;0.40;;;;;;;;;;4964994;28;82212;-50
2022/10/05 15:03:35;;;;;;;0.50;0.50;;;;;;;;;;4975837;28;81816;-50
2022/10/05 15:06:05;;;;;;;0.60;0.60;;;;;;;;;;4983461;28;83171;-51
2022/10/05 15:08:43;;;;;;;1.00;0.73;;;;;;;;;;4983595;28;83846;-50
2022/10/05 15:11:13;;;;;;;0.43;0.43;;;;;;;;;;4983929;28;85054;-50
2022/10/05 15:13:42;;;;;;;0.63;0.63;;;;;;;;;;4981805;28;82197;-50
2022/10/05 15:16:14;;;;;;;4.47;0.90;;;;;;;;;;4965025;28;82614;-50
2022/10/05 15:18:44;;;;;;;0.40;0.40;;;;;;;;;;4964053;28;83944;-50
2022/10/05 15:21:21;;;;;;;0.73;0.70;;;;;;;;;;4962540;28;82888;-50
2022/10/05 15:23:51;;;;;;;0.50;0.50;;;;;;;;;;4964234;28;82049;-50
2022/10/05 15:26:24;;;;;;;0.67;0.50;;;;;;;;;;4964767;28;82892;-50